Time;durP1;ratioP1;P1;durP2;ratioP2;P2;SDS_P1;SDS_P2;PMS_P1;PMS_P2;Temp;Humidity;BMP_temperature;BMP_pressure;BME280_temperature;BME280_humidity;BME280_pressure;Samples;Min_cycle;Max_cycle;Signal;HPM_P1;HPM_P2
2021/04/26 00:02:13;;;;;;;16.17;12.20;;;;;;;3.52;72.41;100133.59;1784840;80;21137;-75
2021/04/26 00:04:41;;;;;;;16.27;12.28;;;;;;;3.50;72.40;100135.91;1785997;80;21165;-75
2021/04/26 00:07:09;;;;;;;15.28;11.53;;;;;;;3.43;72.48;100129.70;1772819;80;21054;-74
2021/04/26 00:09:36;;;;;;;13.50;11.38;;;;;;;3.35;72.59;100134.95;1783302;80;22505;-75
2021/04/26 00:12:06;;;;;;;13.93;10.95;;;;;;;3.26;72.69;100134.98;1756031;81;21559;-74
2021/04/26 00:14:34;;;;;;;13.28;11.35;;;;;;;3.22;72.88;100129.55;1774249;80;21122;-74
2021/04/26 00:17:03;;;;;;;15.43;11.12;;;;;;;3.19;72.89;100124.50;1782909;80;21196;-74
2021/04/26 00:19:31;;;;;;;14.33;11.28;;;;;;;3.15;72.87;100128.18;1814734;78;21062;-74
2021/04/26 00:21:58;;;;;;;14.80;11.45;;;;;;;3.10;72.83;100115.86;1792076;79;21831;-75
2021/04/26 00:24:27;;;;;;;18.15;12.05;;;;;;;3.07;72.83;100121.21;1790215;79;21133;-75
2021/04/26 00:26:56;;;;;;;18.40;12.03;;;;;;;3.03;72.93;100115.78;1778802;79;21452;-76
2021/04/26 00:29:24;;;;;;;13.83;11.63;;;;;;;2.99;73.12;100112.51;1803652;79;21199;-76
2021/04/26 00:31:52;;;;;;;13.85;11.50;;;;;;;3.00;73.34;100115.49;1814354;79;21173;-75
2021/04/26 00:34:21;;;;;;;13.70;11.30;;;;;;;2.99;73.52;100111.63;1815803;79;22068;-75
2021/04/26 00:36:49;;;;;;;12.78;11.45;;;;;;;2.99;73.62;100124.25;1809426;78;21436;-76
2021/04/26 00:39:16;;;;;;;16.87;12.10;;;;;;;2.99;73.66;100120.77;1802912;79;21137;-76
2021/04/26 00:41:44;;;;;;;13.88;10.98;;;;;;;3.02;73.70;100119.32;1794701;79;21169;-74
2021/04/26 00:44:11;;;;;;;13.08;11.33;;;;;;;3.00;73.67;100109.44;1808650;78;21059;-74
2021/04/26 00:46:39;;;;;;;13.20;11.08;;;;;;;2.98;73.67;100105.58;1811137;78;22974;-76
2021/04/26 00:49:06;;;;;;;14.83;11.53;;;;;;;2.93;73.65;100091.11;1803871;78;21089;-75
2021/04/26 00:51:34;;;;;;;15.30;11.57;;;;;;;2.87;73.66;100089.18;1811097;78;21157;-75
2021/04/26 00:54:02;;;;;;;13.90;11.30;;;;;;;2.81;73.74;100086.91;1809970;78;21142;-74
2021/04/26 00:56:29;;;;;;;14.05;11.57;;;;;;;2.77;73.83;100091.89;1819533;78;21333;-74
2021/04/26 00:58:57;;;;;;;16.23;11.95;;;;;;;2.79;73.98;100088.73;1804215;78;22496;-74
2021/04/26 01:01:26;;;;;;;14.20;10.88;;;;;;;2.80;74.11;100087.00;1800914;78;21593;-73
2021/04/26 01:03:54;;;;;;;14.23;11.68;;;;;;;2.79;74.07;100083.98;1802743;78;21124;-74
2021/04/26 01:06:24;;;;;;;16.25;11.90;;;;;;;2.78;74.04;100082.30;1809775;78;21120;-75
2021/04/26 01:08:52;;;;;;;13.43;12.00;;;;;;;2.77;74.10;100086.67;1817049;78;21267;-74
2021/04/26 01:11:27;;;;;;;15.85;12.65;;;;;;;2.75;74.13;100077.25;1813374;78;21157;-75
2021/04/26 01:14:06;;;;;;;13.95;10.95;;;;;;;2.72;74.12;100073.05;1807970;78;21113;-76
2021/04/26 01:16:38;;;;;;;14.95;11.50;;;;;;;2.69;74.01;100067.97;1759110;78;21417;-75
2021/04/26 01:19:33;;;;;;;15.95;12.30;;;;;;;2.62;73.90;100071.00;1766001;80;21113;-76
2021/04/26 01:22:27;;;;;;;12.00;8.75;;;;;;;2.52;73.87;100065.41;1789470;80;21497;-76
2021/04/26 01:25:03;;;;;;;15.83;12.20;;;;;;;2.42;73.85;100065.03;1807632;78;22076;-76
2021/04/26 01:28:16;;;;;;;17.92;12.73;;;;;;;2.35;73.86;100061.50;1807683;78;21181;-73
2021/04/26 01:31:12;;;;;;;18.98;14.03;;;;;;;2.25;73.98;100059.36;1776602;78;21145;-76
2021/04/26 01:33:46;;;;;;;19.32;15.50;;;;;;;2.18;74.39;100052.77;1794249;78;21471;-75
2021/04/26 01:36:17;;;;;;;20.08;15.30;;;;;;;2.19;74.62;100049.23;1803014;78;21096;-76
2021/04/26 01:38:55;;;;;;;19.05;13.43;;;;;;;2.20;74.70;100043.10;1802819;78;22905;-76
2021/04/26 01:41:24;;;;;;;17.30;13.10;;;;;;;2.22;74.62;100043.89;1810360;78;21354;-76
2021/04/26 01:43:52;;;;;;;15.93;13.00;;;;;;;2.20;74.51;100053.98;1815610;78;21647;-76
2021/04/26 01:46:21;;;;;;;18.40;13.43;;;;;;;2.16;74.43;100052.46;1790002;78;21101;-76
2021/04/26 01:48:50;;;;;;;19.98;14.33;;;;;;;2.12;74.46;100046.55;1779381;79;21054;-76
2021/04/26 01:51:17;;;;;;;21.00;16.00;;;;;;;2.12;74.51;100043.94;1780240;79;22062;-76
2021/04/26 01:53:46;;;;;;;19.62;14.18;;;;;;;2.15;74.50;100039.90;1802915;79;21910;-76
2021/04/26 01:56:16;;;;;;;18.40;13.72;;;;;;;2.19;74.49;100026.25;1787394;79;21108;-76
2021/04/26 01:58:54;;;;;;;19.65;13.72;;;;;;;2.24;74.46;100013.84;1861808;76;29051;-76
2021/04/26 02:01:23;;;;;;;20.43;13.78;;;;;;;2.18;74.41;100011.53;1809725;77;21046;-76
2021/04/26 02:03:55;;;;;;;17.45;13.30;;;;;;;2.15;74.38;100007.80;1850408;77;21885;-76
2021/04/26 02:06:43;;;;;;;20.60;15.72;;;;;;;2.11;74.49;100014.90;1823527;77;21058;-76
2021/04/26 02:09:16;;;;;;;22.50;16.60;;;;;;;2.11;74.61;100014.06;1847455;77;21157;-75
2021/04/26 02:11:46;;;;;;;22.82;16.55;;;;;;;2.12;74.74;100011.38;1840185;77;21145;-75
2021/04/26 02:14:15;;;;;;;22.80;15.00;;;;;;;2.15;74.80;100012.55;1855358;77;21093;-74
2021/04/26 02:16:43;;;;;;;24.43;16.35;;;;;;;2.18;74.86;100018.89;1839988;77;23156;-73
2021/04/26 02:19:12;;;;;;;22.10;16.27;;;;;;;2.17;74.95;100025.02;1822484;77;21073;-74
2021/04/26 02:21:41;;;;;;;23.32;17.02;;;;;;;2.16;75.02;100021.20;1851344;77;21166;-74
2021/04/26 02:24:09;;;;;;;21.97;16.77;;;;;;;2.16;75.10;100023.34;1846439;77;21105;-75
2021/04/26 02:26:37;;;;;;;26.80;17.45;;;;;;;2.14;75.23;100014.77;1836756;77;21129;-75
2021/04/26 02:29:04;;;;;;;25.05;16.93;;;;;;;2.14;75.43;100006.11;1820565;78;22458;-75
2021/04/26 02:31:34;;;;;;;24.43;17.55;;;;;;;2.14;75.49;100007.41;1833111;77;21477;-76
2021/04/26 02:34:16;;;;;;;29.15;19.87;;;;;;;2.12;75.52;100004.86;1855230;76;21070;-77
2021/04/26 02:36:49;;;;;;;;;;;;;;;2.09;75.56;99996.37;1826301;76;21503;-75
2021/04/26 02:39:16;;;;;;;32.33;21.02;;;;;;;2.09;75.88;99984.19;1826777;77;20259;-76
2021/04/26 02:41:45;;;;;;;26.95;20.23;;;;;;;2.08;76.01;99973.84;1853805;77;22499;-76
2021/04/26 02:44:26;;;;;;;21.70;17.90;;;;;;;2.06;76.17;99970.02;1857470;77;21637;-76
2021/04/26 02:47:03;;;;;;;23.57;16.75;;;;;;;2.05;76.20;99969.64;1839438;77;21129;-76
2021/04/26 02:49:32;;;;;;;22.00;16.23;;;;;;;2.03;76.22;99961.50;1839907;77;21026;-76
2021/04/26 02:51:59;;;;;;;20.00;15.68;;;;;;;2.03;76.27;99954.56;1826159;77;21588;-76
2021/04/26 02:54:27;;;;;;;20.48;16.00;;;;;;;2.02;76.30;99946.33;1846638;77;22505;-77
2021/04/26 02:56:57;;;;;;;18.40;15.40;;;;;;;2.01;76.38;99956.37;1849749;77;21537;-75
2021/04/26 02:59:25;;;;;;;23.10;15.80;;;;;;;2.01;76.43;99946.80;1790888;78;21160;-75
2021/04/26 03:01:55;;;;;;;19.85;15.05;;;;;;;2.04;76.54;99961.45;1803874;78;21044;-75
2021/04/26 03:04:25;;;;;;;20.05;16.02;;;;;;;2.11;76.65;99959.34;1800038;78;21108;-76
2021/04/26 03:06:54;;;;;;;21.45;16.62;;;;;;;2.18;76.81;99958.97;1792822;78;22503;-77
2021/04/26 03:09:22;;;;;;;23.02;16.55;;;;;;;2.27;76.90;99948.53;1806836;78;21543;-76
2021/04/26 03:12:03;;;;;;;19.70;15.90;;;;;;;2.40;77.02;99934.39;1860356;76;29042;-75
2021/04/26 03:14:41;;;;;;;19.20;14.75;;;;;;;2.46;77.11;99929.70;1838068;77;21156;-76
2021/04/26 03:17:09;;;;;;;19.90;15.23;;;;;;;2.54;77.24;99922.78;1829792;77;22181;-75
2021/04/26 03:19:40;;;;;;;19.00;16.02;;;;;;;2.57;77.32;99926.52;1835660;77;21143;-74
2021/04/26 03:22:09;;;;;;;21.00;15.32;;;;;;;2.62;77.32;99932.34;1850524;77;21125;-75
2021/04/26 03:24:38;;;;;;;17.30;13.90;;;;;;;2.67;77.35;99926.41;1811144;77;21529;-75
2021/04/26 03:27:06;;;;;;;19.95;14.65;;;;;;;2.72;77.42;99932.69;1801885;78;21085;-74
2021/04/26 03:29:34;;;;;;;19.75;15.15;;;;;;;2.76;77.47;99932.42;1792215;79;22165;-74
2021/04/26 03:32:02;;;;;;;16.82;13.68;;;;;;;2.81;77.53;99933.03;1804471;79;21059;-74
2021/04/26 03:34:32;;;;;;;17.52;13.78;;;;;;;2.89;77.54;99940.41;1786557;79;21552;-74
2021/04/26 03:37:00;;;;;;;17.92;14.07;;;;;;;2.94;77.60;99931.89;1738431;81;21064;-74
2021/04/26 03:39:29;;;;;;;17.98;14.60;;;;;;;3.00;77.69;99937.24;1790551;79;21113;-76
2021/04/26 03:41:59;;;;;;;21.15;14.63;;;;;;;3.02;77.74;99931.01;1785531;80;22558;-74
2021/04/26 03:44:27;;;;;;;19.15;15.20;;;;;;;3.08;77.77;99928.50;1786741;78;21129;-75
2021/04/26 03:47:20;;;;;;;17.48;13.90;;;;;;;3.18;77.84;99927.06;1897257;74;29115;-75
2021/04/26 03:49:49;;;;;;;21.33;16.37;;;;;;;3.20;77.91;99923.92;1784933;77;21067;-75
2021/04/26 03:52:39;;;;;;;32.58;21.27;;;;;;;3.31;78.01;99905.89;1853860;76;29062;-75
2021/04/26 03:55:25;;;;;;;24.35;17.65;;;;;;;3.34;78.06;99895.73;1811412;78;21167;-74
2021/04/26 03:57:53;;;;;;;20.60;14.90;;;;;;;3.41;78.09;99895.30;1809699;78;22486;-75
2021/04/26 04:00:22;;;;;;;27.07;18.27;;;;;;;3.50;78.14;99900.92;1822218;77;21143;-73
2021/04/26 04:02:51;;;;;;;21.33;17.25;;;;;;;3.58;78.12;99908.69;1808435;79;21175;-72
2021/04/26 04:05:21;;;;;;;20.92;15.90;;;;;;;3.63;78.10;99921.47;1816718;78;21613;-72
2021/04/26 04:08:22;;;;;;;24.72;16.67;;;;;;;3.68;78.10;99929.42;1866034;76;29330;-72
2021/04/26 04:11:08;;;;;;;33.98;20.32;;;;;;;3.65;78.15;99934.80;1836752;77;21133;-71
2021/04/26 04:13:49;;;;;;;44.40;23.30;;;;;;;3.70;78.14;99928.02;1880762;75;29067;-74
2021/04/26 04:16:17;;;;;;;42.55;22.35;;;;;;;3.68;78.16;99925.97;1805429;79;21138;-73
2021/04/26 04:18:45;;;;;;;28.95;17.37;;;;;;;3.71;78.19;99929.70;1790953;80;22162;-74
2021/04/26 04:21:14;;;;;;;23.80;15.85;;;;;;;3.73;78.25;99935.67;1790030;79;21125;-73
2021/04/26 04:23:43;;;;;;;23.45;16.50;;;;;;;3.75;78.25;99941.64;1847691;77;21098;-72
2021/04/26 04:26:11;;;;;;;32.67;22.13;;;;;;;3.74;78.36;99943.88;1794632;79;21153;-72
2021/04/26 04:28:40;;;;;;;39.90;23.30;;;;;;;3.73;78.45;99944.34;1767750;80;21533;-72
2021/04/26 04:31:09;;;;;;;34.78;22.42;;;;;;;3.76;78.52;99945.93;1812524;77;22556;-71
2021/04/26 04:34:08;;;;;;;33.55;21.65;;;;;;;3.83;78.61;99938.12;1888456;76;28926;-71
2021/04/26 04:36:39;;;;;;;53.45;25.95;;;;;;;3.78;78.68;99932.34;1696121;80;21050;-71
2021/04/26 04:39:17;;;;;;;43.68;22.00;;;;;;;3.86;78.69;99921.42;1884860;76;29092;-71
2021/04/26 04:41:44;;;;;;;41.30;22.45;;;;;;;3.83;78.70;99923.75;1774944;80;21050;-72
2021/04/26 04:44:11;;;;;;;34.80;17.32;;;;;;;3.85;78.70;99923.66;1747936;81;22707;-72
2021/04/26 04:46:39;;;;;;;23.20;15.08;;;;;;;3.85;78.63;99922.35;1772411;79;21182;-71
2021/04/26 04:49:15;;;;;;;18.67;13.55;;;;;;;3.87;78.43;99916.59;1769436;80;21582;-72
2021/04/26 04:51:44;;;;;;;18.60;12.53;;;;;;;3.86;78.27;99914.45;1742416;82;21165;-74
2021/04/26 04:54:13;;;;;;;15.40;9.60;;;;;;;3.87;78.16;99913.98;1729468;82;21201;-70
2021/04/26 04:56:42;;;;;;;15.00;10.70;;;;;;;3.87;78.07;99927.88;1815952;79;23363;-71
2021/04/26 04:59:10;;;;;;;13.53;10.00;;;;;;;3.78;77.74;99937.56;1815648;79;21173;-71
2021/04/26 05:01:39;;;;;;;14.45;8.83;;;;;;;3.69;77.53;99930.27;1816469;78;21153;-70
2021/04/26 05:04:25;;;;;;;9.65;7.75;;;;;;;3.61;77.45;99924.17;1795885;79;21434;-71
2021/04/26 05:07:14;;;;;;;13.35;9.30;;;;;;;;;;1887727;76;29181;-70
2021/04/26 05:10:01;;;;;;;11.93;8.53;;;;;;;3.36;76.72;99935.16;1849830;77;21148;-70
2021/04/26 05:12:48;;;;;;;9.08;7.20;;;;;;;3.27;76.74;99928.31;1831887;77;21071;-69
2021/04/26 05:15:24;;;;;;;9.15;6.00;;;;;;;3.18;76.70;99928.83;1823025;77;21065;-70
2021/04/26 05:17:52;;;;;;;10.72;8.25;;;;;;;3.07;76.66;99921.14;1817051;78;21054;-71
2021/04/26 05:20:20;;;;;;;8.85;6.65;;;;;;;3.00;76.56;99918.52;1821885;78;21133;-70
2021/04/26 05:22:47;;;;;;;9.98;8.23;;;;;;;2.92;76.56;99916.80;1807734;77;21128;-70
2021/04/26 05:25:15;;;;;;;11.38;9.48;;;;;;;2.82;76.57;99906.48;1782128;79;23308;-70
2021/04/26 05:27:43;;;;;;;11.63;9.43;;;;;;;2.74;76.60;99899.08;1829506;77;21095;-71
2021/04/26 05:30:12;;;;;;;13.50;9.60;;;;;;;2.70;76.72;99900.19;1831199;77;21053;-71
2021/04/26 05:32:40;;;;;;;12.15;9.58;;;;;;;2.70;76.92;99901.48;1816368;77;21528;-71
2021/04/26 05:35:15;;;;;;;12.05;9.20;;;;;;;2.72;77.03;99907.45;1793695;78;21070;-71
2021/04/26 05:37:45;;;;;;;12.37;9.55;;;;;;;2.76;77.09;99899.83;1821333;77;22065;-72
2021/04/26 05:40:14;;;;;;;12.82;10.05;;;;;;;2.77;77.11;99894.98;1805440;77;21457;-71
2021/04/26 05:42:42;;;;;;;11.90;9.85;;;;;;;2.78;77.25;99906.26;1841172;77;21568;-71
2021/04/26 05:45:12;;;;;;;14.78;10.75;;;;;;;2.78;77.42;99904.95;1803419;77;21144;-71
2021/04/26 05:47:58;;;;;;;12.43;9.48;;;;;;;2.77;77.60;99898.90;1828905;77;21428;-69
2021/04/26 05:50:25;;;;;;;9.60;6.97;;;;;;;2.77;77.83;99922.37;1849802;77;21819;-69
2021/04/26 05:52:54;;;;;;;7.42;5.22;;;;;;;2.71;78.14;99944.89;1821849;77;21070;-69
2021/04/26 05:55:22;;;;;;;3.50;2.87;;;;;;;2.64;78.37;99958.33;1829507;77;21152;-68
2021/04/26 05:57:49;;;;;;;8.93;6.12;;;;;;;2.50;78.25;99963.80;1848509;77;21525;-70
2021/04/26 06:00:18;;;;;;;5.45;3.80;;;;;;;2.30;78.25;99966.60;1831733;77;21117;-71
2021/04/26 06:02:46;;;;;;;3.08;2.10;;;;;;;2.11;78.44;99973.22;1817585;77;21773;-72
2021/04/26 06:05:14;;;;;;;2.42;1.70;;;;;;;1.96;78.59;99971.41;1831384;77;21156;-72
2021/04/26 06:07:42;;;;;;;1.82;1.37;;;;;;;1.77;78.63;99970.19;1844309;77;21034;-70
2021/04/26 06:10:10;;;;;;;2.02;1.60;;;;;;;1.56;78.71;99967.34;1845569;77;21149;-73
2021/04/26 06:12:37;;;;;;;1.60;1.50;;;;;;;1.35;78.97;99966.59;1841731;77;21448;-72
2021/04/26 06:15:07;;;;;;;1.42;1.30;;;;;;;1.24;79.25;99977.52;1787434;77;22065;-73
2021/04/26 06:17:34;;;;;;;1.55;1.15;;;;;;;1.17;79.42;99960.53;1845815;77;21078;-73
2021/04/26 06:20:03;;;;;;;1.85;1.37;;;;;;;1.14;79.68;99939.84;1846050;77;21038;-70
2021/04/26 06:22:31;;;;;;;1.40;1.10;;;;;;;1.12;79.86;99938.63;1828659;77;21210;-72
2021/04/26 06:24:59;;;;;;;1.17;1.07;;;;;;;1.11;80.03;99949.11;1836734;77;21121;-72
2021/04/26 06:27:26;;;;;;;1.15;1.00;;;;;;;1.08;80.10;99948.80;1834828;77;21941;-72
2021/04/26 06:29:54;;;;;;;1.10;1.00;;;;;;;1.05;80.23;99942.88;1847386;77;21070;-72
2021/04/26 06:32:23;;;;;;;1.40;1.20;;;;;;;1.02;80.32;99946.94;1848988;77;21145;-73
2021/04/26 06:34:51;;;;;;;1.10;1.00;;;;;;;1.01;80.45;99943.95;1844718;77;21124;-74
2021/04/26 06:37:19;;;;;;;1.07;0.98;;;;;;;0.96;80.57;99936.35;1843493;77;21082;-73
2021/04/26 06:39:46;;;;;;;1.10;1.00;;;;;;;0.96;80.65;99933.75;1845113;77;22785;-76
2021/04/26 06:42:14;;;;;;;1.80;1.07;;;;;;;0.95;80.74;99940.33;1822422;77;21149;-75
2021/04/26 06:44:41;;;;;;;1.70;1.10;;;;;;;0.92;80.76;99943.92;1844685;77;21125;-73
2021/04/26 06:47:11;;;;;;;1.10;1.02;;;;;;;0.88;80.80;99945.45;1837891;77;21129;-73
2021/04/26 06:49:39;;;;;;;1.27;0.88;;;;;;;0.77;80.79;99949.39;1832621;77;21114;-75
2021/04/26 06:52:07;;;;;;;1.62;0.90;;;;;;;0.72;80.89;99968.23;1830826;77;21822;-73
2021/04/26 06:54:34;;;;;;;1.00;0.90;;;;;;;0.73;80.96;99974.28;1841494;77;21149;-73
2021/04/26 06:57:01;;;;;;;1.40;1.05;;;;;;;0.73;81.10;99982.08;1830041;77;21050;-72
2021/04/26 06:59:29;;;;;;;1.40;1.27;;;;;;;0.74;81.18;99985.91;1834670;77;21101;-73
2021/04/26 07:01:57;;;;;;;2.80;1.30;;;;;;;0.77;81.37;99984.91;1825783;77;21168;-75
2021/04/26 07:04:25;;;;;;;1.95;1.32;;;;;;;0.76;81.34;99991.03;1832301;77;22056;-72
2021/04/26 07:06:52;;;;;;;1.85;1.35;;;;;;;0.76;81.39;99985.37;1840195;77;21089;-73
2021/04/26 07:09:20;;;;;;;1.27;1.07;;;;;;;0.77;81.46;99986.21;1831310;77;21613;-71
2021/04/26 07:11:49;;;;;;;1.37;1.00;;;;;;;0.77;81.56;99975.39;1829261;77;22215;-69
2021/04/26 07:14:18;;;;;;;0.70;0.70;;;;;;;0.79;81.72;99980.52;1824020;77;21735;-71
2021/04/26 07:16:47;;;;;;;0.80;0.60;;;;;;;0.80;81.80;99989.99;1831273;77;22047;-70
2021/04/26 07:19:15;;;;;;;1.12;0.70;;;;;;;0.87;82.01;99984.91;1815616;79;21729;-69
2021/04/26 07:21:42;;;;;;;0.85;0.70;;;;;;;0.93;82.05;99984.61;1833281;77;21137;-68
2021/04/26 07:24:10;;;;;;;0.90;0.60;;;;;;;1.00;82.13;99987.32;1827666;77;21113;-69
2021/04/26 07:26:37;;;;;;;0.80;0.70;;;;;;;1.07;82.20;99974.89;1830075;77;21143;-70
2021/04/26 07:29:06;;;;;;;0.82;0.70;;;;;;;1.12;82.28;99990.64;1829531;77;22101;-70
2021/04/26 07:31:33;;;;;;;0.88;0.60;;;;;;;1.20;82.35;100007.66;1846340;77;21490;-69
2021/04/26 07:34:01;;;;;;;1.15;1.00;;;;;;;1.29;82.38;100007.23;1824577;77;21105;-69
2021/04/26 07:36:29;;;;;;;1.20;0.90;;;;;;;1.30;82.32;100005.85;1826365;77;21327;-71
2021/04/26 07:38:57;;;;;;;1.10;0.90;;;;;;;1.31;82.28;100007.99;1829871;77;21133;-70
2021/04/26 07:41:24;;;;;;;1.15;1.00;;;;;;;1.35;82.28;100010.83;1756885;80;22781;-70
2021/04/26 07:43:52;;;;;;;1.55;1.10;;;;;;;1.41;82.37;100022.25;1792959;80;21493;-70
2021/04/26 07:46:21;;;;;;;1.42;1.00;;;;;;;1.43;82.40;100015.21;1774121;80;21146;-71
2021/04/26 07:48:48;;;;;;;1.55;1.10;;;;;;;1.44;82.40;100025.55;1780524;80;21125;-71
2021/04/26 07:51:16;;;;;;;1.82;1.37;;;;;;;1.43;82.34;100046.44;1765773;80;21114;-71
2021/04/26 07:53:43;;;;;;;1.60;1.50;;;;;;;1.42;82.37;100043.45;1767114;80;22013;-71
2021/04/26 07:56:11;;;;;;;2.55;1.52;;;;;;;1.46;82.37;100050.68;1760068;81;21225;-71
2021/04/26 07:58:38;;;;;;;1.72;1.50;;;;;;;1.51;82.39;100047.39;1765926;80;21178;-71
2021/04/26 08:01:05;;;;;;;1.45;1.10;;;;;;;1.50;82.32;100051.75;1759535;80;21703;-72
2021/04/26 08:03:33;;;;;;;1.30;1.20;;;;;;;1.46;82.16;100052.83;1773400;80;21181;-73
2021/04/26 08:06:00;;;;;;;1.70;1.40;;;;;;;1.48;82.20;100052.75;1759730;80;21836;-72
2021/04/26 08:08:29;;;;;;;1.55;1.40;;;;;;;1.48;82.20;100058.80;1781087;80;21193;-72
2021/04/26 08:10:57;;;;;;;1.55;1.30;;;;;;;1.47;82.19;100053.20;1790073;80;21200;-70
2021/04/26 08:13:26;;;;;;;1.90;1.45;;;;;;;1.50;82.22;100057.42;1789467;80;21125;-70
2021/04/26 08:15:53;;;;;;;1.32;1.20;;;;;;;1.53;82.26;100059.41;1774600;80;21177;-70
2021/04/26 08:18:20;;;;;;;1.95;1.17;;;;;;;1.57;82.26;100068.77;1761447;80;22068;-70
2021/04/26 08:20:48;;;;;;;1.32;1.05;;;;;;;1.56;82.09;100065.78;1759688;81;21225;-71
2021/04/26 08:23:15;;;;;;;1.40;1.20;;;;;;;1.54;82.08;100062.84;1763995;80;21002;-72
2021/04/26 08:25:44;;;;;;;1.65;1.20;;;;;;;1.53;82.08;100074.18;1789856;80;21153;-73
2021/04/26 08:28:15;;;;;;;1.75;1.45;;;;;;;1.50;82.02;100081.69;1776823;80;21169;-73
2021/04/26 08:30:43;;;;;;;1.40;1.30;;;;;;;1.50;82.05;100090.79;1775227;80;22106;-73
2021/04/26 08:33:11;;;;;;;2.20;1.37;;;;;;;1.49;82.03;100100.81;1781886;80;21188;-73
2021/04/26 08:35:38;;;;;;;2.50;1.27;;;;;;;1.50;82.02;100110.31;1778229;80;21636;-73
2021/04/26 08:38:06;;;;;;;2.15;1.37;;;;;;;1.54;82.07;100120.11;1771798;80;21172;-72
2021/04/26 08:40:34;;;;;;;1.57;1.20;;;;;;;1.57;82.01;100115.63;1768143;80;21608;-73
2021/04/26 08:43:05;;;;;;;1.70;1.20;;;;;;;1.54;81.94;100128.77;1782356;80;21899;-73
2021/04/26 08:45:32;;;;;;;1.85;1.42;;;;;;;1.52;81.84;100121.95;1748117;80;21469;-73
2021/04/26 08:48:02;;;;;;;1.35;1.25;;;;;;;1.54;81.84;100120.95;1783852;80;21164;-72
2021/04/26 08:50:31;;;;;;;1.75;1.42;;;;;;;1.52;81.79;100125.39;1777154;80;21184;-73
2021/04/26 08:52:58;;;;;;;2.33;1.40;;;;;;;1.50;81.69;100131.13;1779724;80;21181;-74
2021/04/26 08:55:26;;;;;;;2.12;1.75;;;;;;;1.48;81.78;100134.27;1783621;80;22317;-73
2021/04/26 08:57:54;;;;;;;1.75;1.50;;;;;;;1.49;81.86;100138.55;1774179;80;21186;-72
2021/04/26 09:00:22;;;;;;;1.95;1.67;;;;;;;1.52;81.92;100144.07;1770531;80;21189;-73
2021/04/26 09:02:57;;;;;;;2.00;1.70;;;;;;;1.59;81.97;100137.67;1781598;80;21137;-73
2021/04/26 09:05:37;;;;;;;2.77;1.75;;;;;;;1.68;82.00;100135.49;1786693;80;21172;-74
2021/04/26 09:08:10;;;;;;;2.45;1.85;;;;;;;1.77;81.97;100134.22;1760279;80;22027;-71
2021/04/26 09:10:50;;;;;;;2.02;1.80;;;;;;;1.86;81.87;100124.67;1757019;80;21240;-73
2021/04/26 09:13:41;;;;;;;2.30;2.00;;;;;;;1.88;81.64;100131.95;1765426;80;21182;-71
2021/04/26 09:16:22;;;;;;;2.30;2.00;;;;;;;1.92;81.61;100131.33;1754599;80;21173;-71
2021/04/26 09:18:57;;;;;;;2.92;1.90;;;;;;;1.98;81.53;100138.41;1753230;80;21612;-74
2021/04/26 09:21:38;;;;;;;2.25;1.80;;;;;;;2.05;81.52;100138.13;1720310;81;22067;-74
2021/04/26 09:24:26;;;;;;;2.10;1.87;;;;;;;2.13;81.57;100143.35;1771202;80;21161;-74
2021/04/26 09:27:14;;;;;;;3.52;2.10;;;;;;;2.23;81.55;100141.14;1757642;80;21053;-74
2021/04/26 09:29:42;;;;;;;2.35;1.77;;;;;;;2.37;81.52;100143.91;1773038;79;21199;-76
2021/04/26 09:32:17;;;;;;;2.05;1.77;;;;;;;2.42;81.14;100158.87;1753044;80;21190;-75
2021/04/26 09:34:52;;;;;;;1.75;1.50;;;;;;;2.36;80.65;100157.02;1777554;80;22926;-72
2021/04/26 09:37:26;;;;;;;1.87;1.30;;;;;;;2.36;80.60;100157.02;1763088;79;21204;-72
2021/04/26 09:39:59;;;;;;;;;;;;;;;2.37;80.29;100154.79;1772430;80;21106;-74
2021/04/26 09:42:52;;;;;;;2.92;1.60;;;;;;;2.38;80.24;100153.87;1762933;80;20316;-78
2021/04/26 09:45:32;;;;;;;1.72;1.50;;;;;;;2.47;80.40;100149.05;1776858;80;21640;-75
2021/04/26 09:48:19;;;;;;;2.17;1.37;;;;;;;2.68;80.44;100148.89;1759410;80;22507;-74
2021/04/26 09:50:53;;;;;;;1.80;1.60;;;;;;;2.85;80.19;100148.42;1772726;80;21520;-75
2021/04/26 09:53:22;;;;;;;2.05;1.40;;;;;;;3.00;79.55;100142.05;1763172;80;21527;-74
2021/04/26 09:55:52;;;;;;;1.85;1.35;;;;;;;3.11;78.95;100146.23;1760925;80;21200;-71
2021/04/26 09:58:19;;;;;;;2.10;1.60;;;;;;;3.24;79.03;100149.04;1763879;80;21576;-74
2021/04/26 10:00:47;;;;;;;1.98;1.47;;;;;;;3.42;78.28;100156.73;1764689;80;22060;-73
2021/04/26 10:03:16;;;;;;;2.95;1.22;;;;;;;3.56;78.00;100151.23;1778603;80;21160;-72
2021/04/26 10:05:46;;;;;;;2.25;1.47;;;;;;;3.75;77.31;100149.30;1780233;80;21442;-74
2021/04/26 10:08:16;;;;;;;2.27;1.37;;;;;;;3.91;77.00;100145.39;1762879;80;21180;-72
2021/04/26 10:10:45;;;;;;;2.05;1.32;;;;;;;4.13;76.57;100148.48;1745336;80;21112;-71
2021/04/26 10:13:13;;;;;;;1.77;1.40;;;;;;;4.31;76.07;100153.13;1756693;80;21577;-72
2021/04/26 10:15:41;;;;;;;1.95;1.32;;;;;;;4.55;75.62;100147.81;1760989;80;21199;-74
2021/04/26 10:18:10;;;;;;;2.00;1.35;;;;;;;4.69;74.70;100156.63;1740682;81;21112;-72
2021/04/26 10:20:43;;;;;;;3.05;1.45;;;;;;;4.85;73.47;100154.80;1771277;80;21180;-75
2021/04/26 10:23:37;;;;;;;2.05;1.30;;;;;;;5.05;73.10;100165.39;1749493;80;21169;-74
2021/04/26 10:26:06;;;;;;;2.10;1.07;;;;;;;5.09;70.49;100169.48;1756690;81;22567;-74
2021/04/26 10:28:36;;;;;;;2.05;1.50;;;;;;;4.89;68.97;100172.83;1768347;80;21176;-72
2021/04/26 10:31:13;;;;;;;2.42;1.45;;;;;;;4.80;69.52;100178.60;1726392;81;21158;-72
2021/04/26 10:34:03;;;;;;;2.15;1.50;;;;;;;4.86;70.04;100179.56;1760601;80;21196;-71
2021/04/26 10:36:47;;;;;;;1.52;1.20;;;;;;;4.93;69.58;100185.28;1743073;81;21163;-73
2021/04/26 10:39:17;;;;;;;4.37;1.40;;;;;;;4.92;68.54;100187.50;1769233;80;22096;-72
2021/04/26 10:41:57;;;;;;;1.70;1.20;;;;;;;4.87;68.36;100190.41;1754492;80;21192;-73
2021/04/26 10:44:47;;;;;;;2.22;1.20;;;;;;;4.88;68.42;100189.94;1753058;81;21478;-72
2021/04/26 10:47:31;;;;;;;1.72;1.00;;;;;;;5.12;69.34;100205.52;1746349;81;21183;-73
2021/04/26 10:50:05;;;;;;;1.57;1.20;;;;;;;5.39;68.58;100202.98;1751846;80;21534;-71
2021/04/26 10:52:39;;;;;;;1.45;1.20;;;;;;;5.44;68.15;100200.95;1769908;80;22054;-73
2021/04/26 10:55:26;;;;;;;1.57;1.25;;;;;;;5.45;67.55;100202.63;1767739;80;21207;-73
2021/04/26 10:58:02;;;;;;;2.40;1.47;;;;;;;5.34;66.26;100208.15;1729949;82;21207;-73
2021/04/26 11:00:41;;;;;;;1.90;1.42;;;;;;;5.11;66.47;100205.11;1724510;83;21172;-71
2021/04/26 11:03:14;;;;;;;2.87;1.25;;;;;;;5.06;66.86;100208.48;1714422;83;21196;-73
2021/04/26 11:05:44;;;;;;;2.37;1.40;;;;;;;5.09;67.52;100213.53;1730349;80;22060;-72
2021/04/26 11:08:39;;;;;;;1.75;1.50;;;;;;;5.11;67.24;100211.66;1767628;80;21169;-72
2021/04/26 11:13:53;;;;;;;2.00;1.50;;;;;;;5.37;66.76;100213.19;1769243;80;21753;-75
2021/04/26 11:16:32;;;;;;;2.52;1.57;;;;;;;5.51;66.16;100216.30;1734731;81;21213;-76
2021/04/26 11:19:09;;;;;;;3.72;1.50;;;;;;;5.64;66.78;100223.30;1768739;80;21898;-76
2021/04/26 11:21:47;;;;;;;3.25;1.22;;;;;;;5.75;65.01;100218.70;1708118;81;21285;-76
2021/04/26 11:24:38;;;;;;;1.67;1.22;;;;;;;5.81;64.70;100216.19;1758514;80;20971;-75
2021/04/26 11:27:15;;;;;;;1.47;1.15;;;;;;;5.87;64.07;100211.86;1724808;83;21178;-71
2021/04/26 11:29:52;;;;;;;2.42;1.10;;;;;;;5.85;63.76;100215.89;1774573;80;21173;-72
2021/04/26 11:32:20;;;;;;;1.47;1.20;;;;;;;5.91;63.49;100217.33;1708121;83;22524;-72
2021/04/26 11:34:56;;;;;;;1.22;1.10;;;;;;;5.91;62.65;100211.62;1775786;80;21711;-72
2021/04/26 11:37:24;;;;;;;2.42;1.65;;;;;;;5.91;63.08;100214.71;1710305;83;21194;-72
2021/04/26 11:39:55;;;;;;;2.50;1.50;;;;;;;6.11;62.89;100220.01;1764250;80;21184;-75
2021/04/26 11:42:26;;;;;;;2.15;1.30;;;;;;;6.25;63.38;100215.55;1714261;83;21181;-71
2021/04/26 11:44:54;;;;;;;3.25;1.40;;;;;;;6.51;62.42;100225.69;1732233;81;21902;-71
2021/04/26 11:47:23;;;;;;;2.05;1.40;;;;;;;6.73;62.74;100222.49;1758392;81;21766;-72
2021/04/26 11:49:54;;;;;;;1.30;1.20;;;;;;;7.08;63.65;100223.26;1756118;81;21144;-71
2021/04/26 11:52:31;;;;;;;2.42;2.00;;;;;;;7.36;61.07;100231.42;1738532;81;21581;-72
2021/04/26 11:55:17;;;;;;;2.47;2.27;;;;;;;7.35;59.67;100237.16;1756525;81;21201;-71
2021/04/26 11:57:54;;;;;;;1.50;1.40;;;;;;;7.07;58.79;100234.70;1756606;81;22029;-71